Time;durP1;ratioP1;P1;durP2;ratioP2;P2;SDS_P1;SDS_P2;PMS_P1;PMS_P2;Temp;Humidity;BMP_temperature;BMP_pressure;BME280_temperature;BME280_humidity;BME280_pressure;Samples;Min_cycle;Max_cycle;Signal;HPM_P1;HPM_P2
2023/03/06 00:00:21;;;;;;;9.40;3.00;;;1.20;99.90;;;;;;5041107;28;20368;-71
2023/03/06 00:02:47;;;;;;;5.25;3.05;;;1.20;99.90;;;;;;5042460;28;20033;-61
2023/03/06 00:05:13;;;;;;;5.37;2.83;;;1.20;99.90;;;;;;5039807;28;20039;-61
2023/03/06 00:07:39;;;;;;;7.00;3.15;;;1.10;99.90;;;;;;5025363;28;20029;-72
2023/03/06 00:10:05;;;;;;;4.63;2.83;;;1.10;99.90;;;;;;5041122;28;20029;-61
2023/03/06 00:12:31;;;;;;;4.77;3.00;;;1.00;99.90;;;;;;5037813;28;20262;-61
2023/03/06 00:14:57;;;;;;;5.20;2.27;;;1.00;99.90;;;;;;5040126;28;20080;-69
2023/03/06 00:17:23;;;;;;;7.67;2.67;;;1.00;99.90;;;;;;5041182;28;20486;-61
2023/03/06 00:19:48;;;;;;;2.70;1.97;;;1.00;99.90;;;;;;5044063;28;20025;-61
2023/03/06 00:22:14;;;;;;;9.73;3.30;;;1.00;99.90;;;;;;5042432;28;20033;-71
2023/03/06 00:24:41;;;;;;;2.93;2.37;;;1.00;99.90;;;;;;5044920;28;20035;-65
2023/03/06 00:27:08;;;;;;;3.65;2.22;;;1.10;99.90;;;;;;5042781;28;20033;-61
2023/03/06 00:29:33;;;;;;;3.28;1.92;;;1.00;99.90;;;;;;5042800;28;20045;-61
2023/03/06 00:31:59;;;;;;;8.43;2.30;;;1.00;99.90;;;;;;5040452;28;20366;-61
2023/03/06 00:34:25;;;;;;;2.63;1.57;;;0.90;99.90;;;;;;5054383;28;20116;-61
2023/03/06 00:36:52;;;;;;;3.53;1.50;;;1.00;99.90;;;;;;5045734;28;20037;-61
2023/03/06 00:39:17;;;;;;;2.47;1.50;;;1.00;99.90;;;;;;5049451;28;20108;-71
2023/03/06 00:41:43;;;;;;;3.43;1.73;;;1.00;99.90;;;;;;5044149;28;20121;-61
2023/03/06 00:44:09;;;;;;;4.33;1.80;;;1.00;99.90;;;;;;5049414;28;20017;-61
2023/03/06 00:46:34;;;;;;;1.47;1.00;;;1.00;99.90;;;;;;5050519;28;20475;-61
2023/03/06 00:49:00;;;;;;;3.27;1.37;;;1.00;99.90;;;;;;5038902;28;20041;-61
2023/03/06 00:51:26;;;;;;;6.70;1.97;;;1.10;99.90;;;;;;5032174;28;20033;-61
2023/03/06 00:53:51;;;;;;;5.13;1.70;;;1.10;99.90;;;;;;5055585;28;20116;-61
2023/03/06 00:56:18;;;;;;;7.00;1.97;;;1.10;99.90;;;;;;5052135;28;20064;-71
2023/03/06 00:58:44;;;;;;;;;;;1.10;99.90;;;;;;5046924;28;20033;-70
2023/03/06 01:01:09;;;;;;;5.47;1.80;;;1.10;99.90;;;;;;5054851;28;19921;-71
2023/03/06 01:03:35;;;;;;;3.97;1.53;;;1.20;99.90;;;;;;5046540;28;20025;-71
2023/03/06 01:06:01;;;;;;;2.23;1.50;;;1.20;99.90;;;;;;5060974;28;20060;-71
2023/03/06 01:08:26;;;;;;;3.90;1.93;;;1.20;99.90;;;;;;5054622;28;20319;-70
2023/03/06 01:10:52;;;;;;;2.47;1.50;;;1.20;99.90;;;;;;5054844;28;20092;-71
2023/03/06 01:13:18;;;;;;;4.67;1.97;;;1.20;99.90;;;;;;5056652;28;20363;-70
2023/03/06 01:15:43;;;;;;;3.83;2.03;;;1.10;99.90;;;;;;5059338;28;20427;-71
2023/03/06 01:18:09;;;;;;;8.33;1.90;;;1.10;99.90;;;;;;5057573;28;20396;-72
2023/03/06 01:20:35;;;;;;;3.40;1.33;;;1.10;99.90;;;;;;5053496;28;20097;-71
2023/03/06 01:23:00;;;;;;;6.07;2.10;;;1.00;99.90;;;;;;5056801;28;20028;-61
2023/03/06 01:25:26;;;;;;;10.33;1.90;;;1.00;99.90;;;;;;5056418;28;20020;-61
2023/03/06 01:27:52;;;;;;;6.40;1.07;;;0.90;99.90;;;;;;5056681;28;20048;-60
2023/03/06 01:30:18;;;;;;;1.60;1.27;;;0.80;99.90;;;;;;5054731;28;20035;-71
2023/03/06 01:32:44;;;;;;;1.85;1.17;;;0.80;99.90;;;;;;5057001;28;20458;-61
2023/03/06 01:35:11;;;;;;;4.83;1.50;;;0.80;99.90;;;;;;5056333;28;20036;-71
2023/03/06 01:37:38;;;;;;;3.92;1.50;;;0.80;99.90;;;;;;5050298;28;20095;-61
2023/03/06 01:40:04;;;;;;;;;;;0.70;99.90;;;;;;5055509;28;20083;-61
2023/03/06 01:42:30;;;;;;;2.28;1.17;;;0.70;99.90;;;;;;5038466;28;19917;-65
2023/03/06 01:45:05;;;;;;;1.83;0.77;;;0.70;99.90;;;;;;5056443;28;20116;-60
2023/03/06 01:47:30;;;;;;;2.28;1.30;;;0.70;99.90;;;;;;5037526;28;20056;-61
2023/03/06 01:49:59;;;;;;;1.57;1.13;;;0.70;99.90;;;;;;5056606;28;20072;-71
2023/03/06 01:52:29;;;;;;;1.77;1.15;;;0.60;99.90;;;;;;5033135;28;20048;-61
2023/03/06 01:54:58;;;;;;;3.08;1.48;;;0.60;99.90;;;;;;5053109;28;20033;-61
2023/03/06 01:57:44;;;;;;;5.28;1.52;;;0.70;99.90;;;;;;5054797;28;20079;-61
2023/03/06 02:00:15;;;;;;;3.80;1.45;;;0.70;99.90;;;;;;5054346;28;20029;-61
2023/03/06 02:02:46;;;;;;;4.18;1.40;;;0.80;99.90;;;;;;5057165;28;20025;-71
2023/03/06 02:05:13;;;;;;;2.20;1.45;;;0.80;99.90;;;;;;5047700;28;20025;-61
2023/03/06 02:07:41;;;;;;;4.55;1.95;;;0.90;99.90;;;;;;5055351;28;20032;-61
2023/03/06 02:10:08;;;;;;;2.53;1.77;;;0.90;99.90;;;;;;5055964;28;20037;-61
2023/03/06 02:12:34;;;;;;;4.75;1.98;;;0.90;99.90;;;;;;5055020;28;20112;-61
2023/03/06 02:15:00;;;;;;;3.33;1.10;;;0.90;99.90;;;;;;5055632;28;20127;-61
2023/03/06 02:17:26;;;;;;;8.00;1.93;;;0.90;99.90;;;;;;5057308;28;20017;-61
2023/03/06 02:20:16;;;;;;;4.30;2.22;;;0.90;99.90;;;;;;5038225;28;20029;-71
2023/03/06 02:22:56;;;;;;;5.18;2.35;;;0.90;99.90;;;;;;5055179;28;20107;-61
2023/03/06 02:25:35;;;;;;;3.67;2.17;;;1.00;99.90;;;;;;5053479;28;20033;-62
2023/03/06 02:28:02;;;;;;;4.18;2.20;;;1.00;99.90;;;;;;5055218;28;20332;-61
2023/03/06 02:30:28;;;;;;;6.47;2.05;;;1.00;99.90;;;;;;5055534;28;20427;-71
2023/03/06 02:32:55;;;;;;;9.75;2.20;;;1.10;99.90;;;;;;5055389;28;20051;-61
2023/03/06 02:35:34;;;;;;;4.25;2.00;;;1.10;99.90;;;;;;5055131;28;20028;-62
2023/03/06 02:38:13;;;;;;;3.15;1.90;;;1.10;99.90;;;;;;5054690;28;20036;-61
2023/03/06 02:40:42;;;;;;;5.85;2.13;;;1.10;99.90;;;;;;5050093;28;20427;-61
2023/03/06 02:43:11;;;;;;;3.28;2.10;;;1.20;99.90;;;;;;5055418;28;20036;-71
2023/03/06 02:45:44;;;;;;;6.15;1.80;;;1.20;99.90;;;;;;5048970;28;20040;-61
2023/03/06 02:48:11;;;;;;;5.63;1.50;;;1.30;99.90;;;;;;5055649;28;20020;-72
2023/03/06 02:50:38;;;;;;;9.30;1.75;;;1.30;99.90;;;;;;5055926;28;20093;-71
2023/03/06 02:53:05;;;;;;;4.07;1.85;;;1.30;99.90;;;;;;5043682;28;20623;-61
2023/03/06 02:55:31;;;;;;;5.70;1.83;;;1.40;99.90;;;;;;5055488;28;20043;-62
2023/03/06 02:57:57;;;;;;;1.98;1.38;;;1.40;99.90;;;;;;5049568;28;20323;-61
2023/03/06 03:00:23;;;;;;;3.17;1.70;;;1.40;99.90;;;;;;5054747;28;20036;-61
2023/03/06 03:02:48;;;;;;;2.70;1.47;;;1.50;99.90;;;;;;5052217;28;20025;-61
2023/03/06 03:05:14;;;;;;;4.27;1.80;;;1.60;99.90;;;;;;5050696;28;20025;-71
2023/03/06 03:07:40;;;;;;;4.07;1.70;;;1.60;99.90;;;;;;5051420;28;20025;-60
2023/03/06 03:10:06;;;;;;;2.73;1.20;;;1.70;99.90;;;;;;5047539;28;20332;-61
2023/03/06 03:12:32;;;;;;;2.60;1.48;;;1.70;99.90;;;;;;5022653;28;20040;-61
2023/03/06 03:14:58;;;;;;;3.27;1.23;;;1.80;99.90;;;;;;5049028;28;20033;-61
2023/03/06 03:17:23;;;;;;;2.17;1.30;;;1.80;99.90;;;;;;5056197;28;20064;-71
2023/03/06 03:19:50;;;;;;;4.50;1.80;;;1.90;99.90;;;;;;5049993;28;20315;-61
2023/03/06 03:22:16;;;;;;;5.70;0.88;;;1.90;99.90;;;;;;5051584;28;20021;-73
2023/03/06 03:24:42;;;;;;;3.67;1.20;;;1.90;99.90;;;;;;5046706;28;20045;-61
2023/03/06 03:27:08;;;;;;;11.17;1.57;;;2.00;99.90;;;;;;5047628;28;20040;-61
2023/03/06 03:29:34;;;;;;;3.17;1.50;;;2.10;99.90;;;;;;5047275;28;20051;-61
2023/03/06 03:31:59;;;;;;;1.63;0.73;;;2.00;99.90;;;;;;5050817;28;20475;-60
2023/03/06 03:34:26;;;;;;;8.93;1.63;;;2.10;99.90;;;;;;5047578;28;20099;-72
2023/03/06 03:36:51;;;;;;;3.38;1.02;;;2.10;99.90;;;;;;5044089;28;20064;-71
2023/03/06 03:39:17;;;;;;;5.00;0.93;;;2.10;99.90;;;;;;5051403;28;20072;-60
2023/03/06 03:41:43;;;;;;;2.20;0.87;;;2.20;99.90;;;;;;5051405;28;20108;-61
2023/03/06 03:44:09;;;;;;;1.30;0.80;;;2.20;99.90;;;;;;5049320;28;20036;-61
2023/03/06 03:46:35;;;;;;;1.55;1.02;;;2.20;99.90;;;;;;5055641;28;20028;-61
2023/03/06 03:49:00;;;;;;;0.63;0.63;;;2.20;99.90;;;;;;5047742;28;20111;-61
2023/03/06 03:51:26;;;;;;;1.13;0.50;;;2.20;99.90;;;;;;5052786;28;20031;-61
2023/03/06 03:53:52;;;;;;;2.93;0.97;;;2.20;99.90;;;;;;5049331;28;20394;-61
2023/03/06 03:56:18;;;;;;;1.97;1.13;;;2.20;99.90;;;;;;5050525;28;20038;-61
2023/03/06 03:58:43;;;;;;;0.83;0.67;;;2.20;99.90;;;;;;5054152;28;20029;-61
2023/03/06 04:01:09;;;;;;;4.10;1.13;;;2.20;99.90;;;;;;5035015;28;20108;-61
2023/03/06 04:03:35;;;;;;;3.03;0.90;;;2.30;99.90;;;;;;5036207;28;20021;-61
2023/03/06 04:06:01;;;;;;;1.20;1.00;;;2.40;99.90;;;;;;5053144;28;20134;-61
2023/03/06 04:08:27;;;;;;;1.20;0.80;;;2.40;99.90;;;;;;5054049;28;20419;-61
2023/03/06 04:10:53;;;;;;;1.50;0.73;;;2.40;99.90;;;;;;5054239;28;20292;-61
2023/03/06 04:13:20;;;;;;;1.25;0.80;;;2.40;99.90;;;;;;5046339;28;20273;-61
2023/03/06 04:15:50;;;;;;;1.20;0.95;;;2.40;99.90;;;;;;5052685;28;20115;-61
2023/03/06 04:18:16;;;;;;;2.85;0.98;;;2.50;99.90;;;;;;5047821;28;20080;-61
2023/03/06 04:20:43;;;;;;;5.00;1.10;;;2.50;99.90;;;;;;5034859;28;20029;-61
2023/03/06 04:23:09;;;;;;;1.67;1.10;;;2.50;99.90;;;;;;5053679;28;20021;-61
2023/03/06 04:25:35;;;;;;;2.40;0.87;;;2.60;99.90;;;;;;5052583;28;20031;-65
2023/03/06 04:28:01;;;;;;;0.70;0.70;;;2.50;99.90;;;;;;5057924;28;20055;-62
2023/03/06 04:30:27;;;;;;;3.07;1.10;;;2.50;99.90;;;;;;5053349;28;20027;-61
2023/03/06 04:32:52;;;;;;;4.90;1.20;;;2.50;99.90;;;;;;5053990;28;20029;-61
2023/03/06 04:35:18;;;;;;;2.93;1.37;;;2.50;99.90;;;;;;5052636;28;20028;-71
2023/03/06 04:37:43;;;;;;;6.73;1.50;;;2.50;99.90;;;;;;5052305;28;20052;-61
2023/03/06 04:40:27;;;;;;;4.13;1.73;;;2.50;99.90;;;;;;5053940;28;20052;-61
2023/03/06 04:42:55;;;;;;;6.30;1.60;;;2.50;99.90;;;;;;5053478;28;20021;-61
2023/03/06 04:45:21;;;;;;;2.33;1.48;;;2.50;99.90;;;;;;5035946;28;20361;-65
2023/03/06 04:47:46;;;;;;;2.20;1.50;;;2.50;99.90;;;;;;5051645;28;20331;-61
2023/03/06 04:50:12;;;;;;;3.80;1.50;;;2.50;99.90;;;;;;5053626;28;20029;-61
2023/03/06 04:52:39;;;;;;;1.40;1.30;;;2.50;99.90;;;;;;5051506;28;20036;-61
2023/03/06 04:55:09;;;;;;;;;;;2.60;99.90;;;;;;5052507;28;20033;-61
2023/03/06 04:57:39;;;;;;;8.38;1.70;;;2.60;99.90;;;;;;5055296;28;19956;-61
2023/03/06 05:00:09;;;;;;;1.92;0.98;;;2.60;99.90;;;;;;5052349;28;20021;-60
2023/03/06 05:02:35;;;;;;;2.42;0.90;;;2.60;99.90;;;;;;5049356;28;20025;-61
2023/03/06 05:05:02;;;;;;;8.73;1.13;;;2.60;99.90;;;;;;5053493;28;20021;-60
2023/03/06 05:07:28;;;;;;;1.67;1.05;;;2.60;99.90;;;;;;5058469;28;20084;-61
2023/03/06 05:09:54;;;;;;;2.20;0.70;;;2.50;99.90;;;;;;5034381;28;20041;-61
2023/03/06 05:12:19;;;;;;;0.93;0.40;;;2.50;99.90;;;;;;5036398;28;20033;-61
2023/03/06 05:14:45;;;;;;;5.43;1.30;;;2.40;99.90;;;;;;5051742;28;20079;-71
2023/03/06 05:17:11;;;;;;;2.00;0.47;;;2.40;99.90;;;;;;5049936;28;20022;-61
2023/03/06 05:19:36;;;;;;;1.13;1.03;;;2.30;99.90;;;;;;5051709;28;20056;-61
2023/03/06 05:22:02;;;;;;;1.40;0.47;;;2.20;99.90;;;;;;5034491;28;20058;-61
2023/03/06 05:24:28;;;;;;;0.23;0.23;;;2.10;99.90;;;;;;5053275;28;20044;-61
2023/03/06 05:26:53;;;;;;;0.30;0.30;;;2.10;99.90;;;;;;5055044;28;20028;-60
2023/03/06 05:29:19;;;;;;;2.03;0.60;;;2.10;99.90;;;;;;5053129;28;20060;-71
2023/03/06 05:31:45;;;;;;;0.50;0.50;;;2.10;99.90;;;;;;5037455;28;20025;-68
2023/03/06 05:34:15;;;;;;;1.30;0.37;;;2.00;99.90;;;;;;5054619;28;20419;-61
2023/03/06 05:36:41;;;;;;;6.07;0.65;;;2.00;99.90;;;;;;5055888;28;20025;-61
2023/03/06 05:39:07;;;;;;;0.43;0.43;;;2.00;99.90;;;;;;5052670;28;20084;-60
2023/03/06 05:41:33;;;;;;;0.77;0.43;;;2.00;99.90;;;;;;5058417;28;20032;-61
2023/03/06 05:43:58;;;;;;;2.50;0.87;;;2.00;99.90;;;;;;5059522;28;20288;-61
2023/03/06 05:46:24;;;;;;;2.00;0.97;;;1.90;99.90;;;;;;5058243;28;20033;-62
2023/03/06 05:48:54;;;;;;;0.30;0.30;;;1.90;99.90;;;;;;5055097;28;20063;-61
2023/03/06 05:51:21;;;;;;;1.45;0.88;;;1.90;99.90;;;;;;5056569;28;20103;-71
2023/03/06 05:53:46;;;;;;;2.10;0.55;;;1.90;99.90;;;;;;5060451;28;20331;-61
2023/03/06 05:56:13;;;;;;;1.10;0.80;;;1.90;99.90;;;;;;5055733;28;20033;-61
2023/03/06 05:58:38;;;;;;;6.57;1.05;;;1.90;99.90;;;;;;5055982;28;20354;-61
2023/03/06 06:01:13;;;;;;;4.60;0.50;;;1.90;99.90;;;;;;5050458;28;20033;-61
2023/03/06 06:03:39;;;;;;;4.05;0.60;;;1.90;99.90;;;;;;5049004;28;20025;-61
2023/03/06 06:06:06;;;;;;;1.20;0.43;;;1.80;99.90;;;;;;5056421;28;20090;-61
2023/03/06 06:08:32;;;;;;;4.55;0.75;;;1.90;99.90;;;;;;5055462;28;20033;-61
2023/03/06 06:10:58;;;;;;;1.17;0.80;;;1.90;99.90;;;;;;5062369;28;20033;-61
2023/03/06 06:13:23;;;;;;;3.50;0.90;;;2.00;99.90;;;;;;5054840;28;20384;-61
2023/03/06 06:15:49;;;;;;;4.23;1.07;;;1.90;99.90;;;;;;5056305;28;20320;-61
2023/03/06 06:18:14;;;;;;;1.73;0.90;;;1.90;99.90;;;;;;5020618;28;20048;-71
2023/03/06 06:20:40;;;;;;;1.60;1.10;;;1.90;99.90;;;;;;5055659;28;20037;-60
2023/03/06 06:23:06;;;;;;;0.90;0.70;;;1.80;99.90;;;;;;5055728;28;20112;-71
2023/03/06 06:25:32;;;;;;;3.27;1.03;;;1.80;99.90;;;;;;5054973;28;20062;-61
2023/03/06 06:27:58;;;;;;;4.10;1.33;;;1.90;99.90;;;;;;5055702;28;20428;-61
2023/03/06 06:30:24;;;;;;;2.00;1.00;;;1.80;99.90;;;;;;5059570;28;20033;-61
2023/03/06 06:32:49;;;;;;;3.23;0.70;;;1.80;99.90;;;;;;5036220;28;20044;-61
2023/03/06 06:35:15;;;;;;;2.40;0.53;;;1.80;99.90;;;;;;5037111;28;20270;-61
2023/03/06 06:37:41;;;;;;;2.07;1.07;;;1.90;99.90;;;;;;5055298;28;20033;-61
2023/03/06 06:40:07;;;;;;;2.03;1.13;;;1.90;99.90;;;;;;5057504;28;20040;-69
2023/03/06 06:42:35;;;;;;;1.98;0.85;;;1.90;99.90;;;;;;5054489;28;20074;-61
2023/03/06 06:45:02;;;;;;;2.75;1.20;;;1.90;99.90;;;;;;5054031;28;20668;-61
2023/03/06 06:47:27;;;;;;;3.25;0.68;;;1.90;99.90;;;;;;5054483;28;20108;-61
2023/03/06 06:49:55;;;;;;;3.93;1.30;;;1.90;99.90;;;;;;5054818;28;20191;-61
2023/03/06 06:52:22;;;;;;;5.50;1.27;;;1.90;99.90;;;;;;5054400;28;20423;-61
2023/03/06 06:54:47;;;;;;;1.30;0.95;;;1.90;99.90;;;;;;5053571;28;20116;-61
2023/03/06 06:57:14;;;;;;;1.93;0.90;;;1.80;99.90;;;;;;5054239;28;20108;-71
2023/03/06 06:59:40;;;;;;;3.08;1.25;;;1.90;99.90;;;;;;5053600;28;20048;-61
2023/03/06 07:02:06;;;;;;;1.80;1.00;;;1.90;99.90;;;;;;5053282;28;20029;-61
2023/03/06 07:04:31;;;;;;;4.10;1.00;;;1.90;99.90;;;;;;5050322;28;20055;-61
2023/03/06 07:06:58;;;;;;;1.70;0.97;;;1.90;99.90;;;;;;5052852;28;20032;-72
2023/03/06 07:09:24;;;;;;;5.22;1.58;;;2.00;99.90;;;;;;5046467;28;20410;-62
2023/03/06 07:11:50;;;;;;;8.87;1.20;;;2.20;99.90;;;;;;5025004;28;20435;-61
2023/03/06 07:14:15;;;;;;;5.53;1.00;;;2.30;99.90;;;;;;5049663;28;20320;-61
2023/03/06 07:16:41;;;;;;;2.13;1.17;;;2.40;99.90;;;;;;5053101;28;20697;-61
2023/03/06 07:19:07;;;;;;;2.97;1.23;;;2.40;99.90;;;;;;5055466;28;20441;-61
2023/03/06 07:21:33;;;;;;;2.13;1.17;;;2.50;99.90;;;;;;5048186;28;20095;-61
2023/03/06 07:24:00;;;;;;;5.20;1.37;;;2.50;99.90;;;;;;5051108;28;20025;-72
2023/03/06 07:26:27;;;;;;;3.20;1.10;;;2.60;99.90;;;;;;5051838;28;20021;-61
2023/03/06 07:28:53;;;;;;;1.67;1.08;;;2.90;99.90;;;;;;5048492;28;20428;-61
2023/03/06 07:31:21;;;;;;;3.75;1.50;;;3.60;99.90;;;;;;5058106;28;20024;-61
2023/03/06 07:33:51;;;;;;;6.45;1.30;;;4.60;99.90;;;;;;5033682;28;20072;-72
2023/03/06 07:36:17;;;;;;;1.48;1.05;;;5.50;99.90;;;;;;5051603;28;20068;-61
2023/03/06 07:38:43;;;;;;;9.87;1.33;;;6.30;99.90;;;;;;5048556;28;20060;-61
2023/03/06 07:41:12;;;;;;;1.23;0.90;;;6.70;99.90;;;;;;5058430;28;20428;-62
2023/03/06 07:43:40;;;;;;;1.10;0.80;;;6.80;99.90;;;;;;5054972;28;20028;-61
2023/03/06 07:46:06;;;;;;;3.28;1.15;;;6.70;99.90;;;;;;5052260;28;20060;-61
2023/03/06 07:48:32;;;;;;;5.20;1.07;;;6.40;99.90;;;;;;5058919;28;20025;-61
2023/03/06 07:50:59;;;;;;;;;;;6.10;99.90;;;;;;5050338;28;20479;-61
2023/03/06 07:53:25;;;;;;;1.98;0.85;;;5.40;99.90;;;;;;5056065;28;19908;-71
2023/03/06 07:55:52;;;;;;;1.80;1.08;;;5.10;99.90;;;;;;5051567;28;20541;-61
2023/03/06 07:58:17;;;;;;;1.02;0.80;;;4.50;99.90;;;;;;5056674;28;20319;-61
2023/03/06 08:00:43;;;;;;;1.20;0.90;;;4.30;99.90;;;;;;5048261;28;20029;-62
2023/03/06 08:03:10;;;;;;;1.07;0.80;;;4.10;99.90;;;;;;5056098;28;20025;-61
2023/03/06 08:05:36;;;;;;;1.58;0.75;;;4.20;99.90;;;;;;5051517;28;20382;-72
2023/03/06 08:08:02;;;;;;;3.73;0.97;;;4.40;99.90;;;;;;5037095;28;20108;-62
2023/03/06 08:10:28;;;;;;;1.73;1.03;;;5.00;99.90;;;;;;5033608;28;20358;-61
2023/03/06 08:12:53;;;;;;;1.73;0.90;;;5.40;99.90;;;;;;5054056;28;20120;-61
2023/03/06 08:15:19;;;;;;;1.13;0.67;;;6.10;99.90;;;;;;5046855;28;20406;-62
2023/03/06 08:17:45;;;;;;;1.60;1.17;;;6.20;99.90;;;;;;5045238;28;20030;-61
2023/03/06 08:20:13;;;;;;;0.80;0.70;;;6.40;99.90;;;;;;5047780;28;20436;-61
2023/03/06 08:22:39;;;;;;;1.35;0.70;;;6.60;99.90;;;;;;5048056;28;20733;-71
2023/03/06 08:25:06;;;;;;;1.15;0.63;;;6.50;99.90;;;;;;5050668;28;21431;-62
2023/03/06 08:27:33;;;;;;;1.33;0.98;;;6.70;99.90;;;;;;5022390;28;20040;-62
2023/03/06 08:29:58;;;;;;;;;;;6.90;99.90;;;;;;5046705;28;20080;-61
2023/03/06 08:32:24;;;;;;;1.98;0.75;;;6.90;99.90;;;;;;5046216;28;20299;-73
2023/03/06 08:34:50;;;;;;;2.13;0.97;;;7.00;99.90;;;;;;5049366;28;20060;-61
2023/03/06 08:37:15;;;;;;;0.57;0.50;;;6.90;99.90;;;;;;5048663;28;20025;-61
2023/03/06 08:39:41;;;;;;;1.63;0.60;;;7.00;99.90;;;;;;5051728;28;20029;-70
2023/03/06 08:42:08;;;;;;;3.43;1.00;;;7.00;99.90;;;;;;5054135;28;20013;-61
2023/03/06 08:44:34;;;;;;;1.02;0.55;;;7.20;99.90;;;;;;5053341;28;20423;-61
2023/03/06 08:47:01;;;;;;;0.87;0.50;;;7.20;99.90;;;;;;5032512;28;20061;-61
2023/03/06 08:49:26;;;;;;;1.05;0.30;;;6.90;99.90;;;;;;5055013;28;20374;-61
2023/03/06 08:51:52;;;;;;;0.67;0.30;;;6.90;99.90;;;;;;5057871;28;20062;-61
2023/03/06 08:54:17;;;;;;;1.70;0.53;;;6.50;99.90;;;;;;5052052;28;20352;-61
2023/03/06 08:56:43;;;;;;;2.77;0.40;;;6.50;99.90;;;;;;5054744;28;20036;-61
2023/03/06 08:59:10;;;;;;;2.67;1.03;;;6.30;99.90;;;;;;5049223;28;20024;-61
2023/03/06 09:01:37;;;;;;;2.35;0.43;;;6.30;99.90;;;;;;5051555;28;20028;-73
2023/03/06 09:04:06;;;;;;;4.38;0.50;;;6.60;99.90;;;;;;5054643;28;20033;-62
2023/03/06 09:06:34;;;;;;;0.00;0.00;;;7.40;99.90;;;;;;5048580;28;20057;-61
2023/03/06 09:09:00;;;;;;;5.57;0.52;;;7.70;99.90;;;;;;5054069;28;20076;-62
2023/03/06 09:11:27;;;;;;;3.28;0.40;;;7.90;99.90;;;;;;5052686;28;20423;-61
2023/03/06 09:13:53;;;;;;;1.30;0.30;;;8.00;99.90;;;;;;5057476;28;20028;-62
2023/03/06 09:16:19;;;;;;;1.30;0.38;;;8.60;99.90;;;;;;5052545;28;20025;-62
2023/03/06 09:18:45;;;;;;;3.45;0.80;;;9.10;99.90;;;;;;5051048;28;20026;-62
2023/03/06 09:21:10;;;;;;;1.33;0.40;;;8.90;99.90;;;;;;5056834;28;20040;-61
2023/03/06 09:23:38;;;;;;;3.37;0.50;;;9.10;99.90;;;;;;5054663;28;20033;-62
2023/03/06 09:26:05;;;;;;;0.30;0.30;;;8.60;99.90;;;;;;5057074;28;20202;-62
2023/03/06 09:28:33;;;;;;;1.10;0.47;;;8.80;99.90;;;;;;5046089;28;20134;-62
2023/03/06 09:30:59;;;;;;;0.35;0.30;;;9.50;99.90;;;;;;5052340;28;20309;-73
2023/03/06 09:33:27;;;;;;;2.00;0.27;;;9.80;99.90;;;;;;5054062;28;20048;-62
2023/03/06 09:35:55;;;;;;;3.50;0.50;;;9.80;99.90;;;;;;5058386;28;20296;-62
2023/03/06 09:38:23;;;;;;;2.50;0.40;;;10.10;99.90;;;;;;5046277;28;20075;-69
2023/03/06 09:40:54;;;;;;;2.03;0.30;;;10.60;99.90;;;;;;5057595;28;20083;-62
2023/03/06 09:43:34;;;;;;;1.33;0.60;;;10.40;99.90;;;;;;5057708;28;20027;-73
2023/03/06 09:46:04;;;;;;;0.20;0.20;;;10.30;99.90;;;;;;5056247;28;20021;-62
2023/03/06 09:48:51;;;;;;;0.40;0.32;;;9.70;99.90;;;;;;5057282;28;20075;-73
2023/03/06 09:51:21;;;;;;;0.20;0.13;;;10.00;99.90;;;;;;5056961;28;20033;-62
2023/03/06 09:53:53;;;;;;;2.38;0.30;;;10.20;99.90;;;;;;5058785;28;20037;-61
2023/03/06 09:56:22;;;;;;;0.50;0.20;;;10.50;99.90;;;;;;5055862;28;20081;-62
2023/03/06 09:59:12;;;;;;;0.10;0.10;;;10.10;99.90;;;;;;5056986;28;20017;-62
2023/03/06 10:01:42;;;;;;;0.32;0.10;;;9.40;99.90;;;;;;5042816;28;20785;-61
2023/03/06 10:04:27;;;;;;;0.10;0.10;;;8.60;99.90;;;;;;5063073;28;20017;-61
2023/03/06 10:06:58;;;;;;;0.50;0.30;;;8.30;99.90;;;;;;5042868;28;20365;-62
2023/03/06 10:09:33;;;;;;;1.63;0.40;;;8.10;99.90;;;;;;5055570;28;20033;-61
2023/03/06 10:12:27;;;;;;;1.63;0.40;;;8.40;99.90;;;;;;5052753;28;20031;-73
2023/03/06 10:15:01;;;;;;;2.30;0.30;;;8.50;99.90;;;;;;5056292;28;20033;-62
2023/03/06 10:17:34;;;;;;;4.28;0.60;;;8.90;99.90;;;;;;5055594;28;20320;-62
2023/03/06 10:20:01;;;;;;;5.85;0.80;;;9.30;99.90;;;;;;5045625;28;20028;-72
2023/03/06 10:22:31;;;;;;;2.45;0.70;;;9.50;99.90;;;;;;5046103;28;20021;-62
2023/03/06 10:25:15;;;;;;;12.38;0.82;;;9.80;99.90;;;;;;5055193;28;20030;-62
2023/03/06 10:27:47;;;;;;;0.57;0.30;;;10.10;99.90;;;;;;5050559;28;20025;-62
2023/03/06 10:30:39;;;;;;;1.80;0.85;;;10.00;99.90;;;;;;5060340;28;20300;-62
2023/03/06 10:33:14;;;;;;;0.38;0.38;;;9.80;99.90;;;;;;5008960;28;20064;-62
2023/03/06 10:35:49;;;;;;;9.50;0.95;;;9.70;99.90;;;;;;5050847;28;20374;-62
2023/03/06 10:38:26;;;;;;;2.75;0.55;;;9.70;99.90;;;;;;5044921;28;20064;-62
2023/03/06 10:41:10;;;;;;;5.13;1.00;;;9.80;99.90;;;;;;5053736;28;20036;-62
2023/03/06 10:43:39;;;;;;;0.70;0.60;;;9.90;99.90;;;;;;5055038;28;20059;-62
2023/03/06 10:46:06;;;;;;;1.48;0.75;;;10.10;99.90;;;;;;5044727;28;20112;-62
2023/03/06 10:48:35;;;;;;;1.98;0.52;;;10.10;99.90;;;;;;5051385;28;20425;-63
2023/03/06 10:51:20;;;;;;;6.57;0.80;;;10.20;99.90;;;;;;5052758;28;20094;-72
2023/03/06 10:53:53;;;;;;;7.72;0.68;;;10.00;99.90;;;;;;5057272;28;20025;-62
2023/03/06 10:56:37;;;;;;;3.50;0.90;;;9.80;99.90;;;;;;5033809;28;20032;-73
2023/03/06 10:59:15;;;;;;;4.43;0.90;;;9.90;99.90;;;;;;5051140;28;20427;-62
2023/03/06 11:01:46;;;;;;;5.10;0.75;;;9.90;99.90;;;;;;5047188;28;20044;-74
2023/03/06 11:04:23;;;;;;;10.23;0.88;;;9.80;99.90;;;;;;5056308;28;20040;-62
2023/03/06 11:07:04;;;;;;;7.28;0.52;;;9.80;99.90;;;;;;5058430;28;20033;-62
2023/03/06 11:09:31;;;;;;;1.52;0.70;;;9.80;99.90;;;;;;5053585;28;20043;-62
2023/03/06 11:12:19;;;;;;;1.27;0.55;;;9.80;99.90;;;;;;5052132;28;20108;-62
2023/03/06 11:14:45;;;;;;;1.70;0.90;;;9.90;99.90;;;;;;5053340;28;20021;-62
2023/03/06 11:17:32;;;;;;;1.70;0.53;;;9.90;99.90;;;;;;5056528;28;20103;-62
2023/03/06 11:20:19;;;;;;;14.23;1.48;;;9.90;99.90;;;;;;5048858;28;20031;-63
2023/03/06 11:22:46;;;;;;;;;;;9.80;99.90;;;;;;5046169;28;20026;-62
2023/03/06 11:25:15;;;;;;;10.18;1.65;;;9.80;99.90;;;;;;5051388;28;19912;-63
2023/03/06 11:27:43;;;;;;;10.02;2.20;;;9.60;99.90;;;;;;5058152;28;20033;-63
2023/03/06 11:30:28;;;;;;;15.50;1.88;;;9.40;99.90;;;;;;5060279;28;20447;-73
2023/03/06 11:33:29;;;;;;;12.52;1.10;;;9.30;99.90;;;;;;5052326;28;20032;-63
2023/03/06 11:36:39;;;;;;;10.95;1.55;;;9.30;99.90;;;;;;5045230;28;20036;-62
2023/03/06 11:39:29;;;;;;;11.18;1.23;;;9.40;99.90;;;;;;5002144;28;20037;-63
2023/03/06 11:42:17;;;;;;;11.82;1.58;;;9.40;99.90;;;;;;5007448;28;20040;-62
2023/03/06 11:45:02;;;;;;;2.85;0.98;;;9.30;99.90;;;;;;4996594;28;20030;-62
2023/03/06 11:47:33;;;;;;;35.58;2.40;;;9.30;99.90;;;;;;4978499;28;20044;-74
2023/03/06 11:50:37;;;;;;;4.95;1.38;;;9.10;99.90;;;;;;4980845;28;20113;-75
2023/03/06 11:53:05;;;;;;;14.70;1.83;;;9.00;99.90;;;;;;5004886;28;20041;-62
2023/03/06 11:55:48;;;;;;;19.63;1.63;;;8.90;99.90;;;;;;5003665;28;20368;-62
2023/03/06 11:58:33;;;;;;;1.85;0.88;;;8.70;99.90;;;;;;5007887;28;20029;-74
2023/03/06 12:01:16;;;;;;;10.35;1.75;;;8.60;99.90;;;;;;5001780;28;20034;-63
2023/03/06 12:03:50;;;;;;;6.63;1.17;;;8.50;99.90;;;;;;5008039;28;20194;-62
2023/03/06 12:06:21;;;;;;;12.05;1.05;;;8.40;99.90;;;;;;5006470;28;20052;-62
2023/03/06 12:09:39;;;;;;;2.85;0.90;;;8.20;99.90;;;;;;5007159;28;20033;-63
2023/03/06 12:12:29;;;;;;;5.22;1.10;;;8.10;99.90;;;;;;4982793;28;20038;-62
2023/03/06 12:15:03;;;;;;;6.07;1.40;;;8.10;99.90;;;;;;5042022;28;20108;-62
2023/03/06 12:18:06;;;;;;;5.30;1.50;;;8.00;99.90;;;;;;5042764;28;20063;-62
2023/03/06 12:20:44;;;;;;;2.50;1.25;;;8.10;99.90;;;;;;5046522;28;20033;-63
2023/03/06 12:23:15;;;;;;;7.97;1.50;;;8.30;99.90;;;;;;5045284;28;20316;-62
2023/03/06 12:25:43;;;;;;;14.38;2.10;;;8.40;99.90;;;;;;5043187;28;20029;-62
2023/03/06 12:28:29;;;;;;;13.27;1.85;;;8.80;99.90;;;;;;5043121;28;20462;-74
2023/03/06 12:31:28;;;;;;;10.53;1.60;;;9.00;99.90;;;;;;5041595;28;20593;-63
2023/03/06 12:34:19;;;;;;;6.13;1.63;;;8.90;99.90;;;;;;5039965;28;20021;-62
2023/03/06 12:37:05;;;;;;;2.40;1.65;;;9.10;99.90;;;;;;5042542;28;20060;-63
2023/03/06 12:40:11;;;;;;;3.22;1.98;;;9.00;99.90;;;;;;5022692;28;20444;-63
2023/03/06 12:42:54;;;;;;;3.30;1.98;;;8.90;99.90;;;;;;5048756;28;20029;-62
2023/03/06 12:45:29;;;;;;;4.25;2.17;;;9.00;99.90;;;;;;5057285;28;20024;-75
2023/03/06 12:47:56;;;;;;;5.20;2.53;;;9.10;99.90;;;;;;5038571;28;20108;-63
2023/03/06 12:50:24;;;;;;;4.50;2.60;;;9.10;99.90;;;;;;5054652;28;20033;-64
2023/03/06 12:52:52;;;;;;;11.02;2.22;;;9.10;99.90;;;;;;5052854;28;20032;-73
2023/03/06 12:55:19;;;;;;;4.35;2.80;;;9.00;99.90;;;;;;5045860;28;20026;-63
2023/03/06 12:57:47;;;;;;;6.75;2.83;;;8.90;99.90;;;;;;5043288;28;20029;-63
2023/03/06 13:00:31;;;;;;;8.57;3.08;;;9.00;99.90;;;;;;5034607;28;20024;-63
2023/03/06 13:03:05;;;;;;;7.93;3.05;;;9.00;99.90;;;;;;5045176;28;20029;-63
2023/03/06 13:06:03;;;;;;;8.50;2.95;;;9.00;99.90;;;;;;5053859;28;20033;-63
2023/03/06 13:08:51;;;;;;;8.15;3.55;;;8.90;99.90;;;;;;5048623;28;20556;-64
2023/03/06 13:11:44;;;;;;;3.92;2.63;;;8.70;99.90;;;;;;5047791;28;20037;-63